Time;durP1;ratioP1;P1;durP2;ratioP2;P2;SDS_P1;SDS_P2;PMS_P1;PMS_P2;Temp;Humidity;BMP_temperature;BMP_pressure;BME280_temperature;BME280_humidity;BME280_pressure;Samples;Min_cycle;Max_cycle;Signal;HPM_P1;HPM_P2
2023/03/10 00:00:20;;;;;;;;;5.00;4.67;;;;;13.46;100.00;98704.28;5079102;28;45417;-79
2023/03/10 00:02:48;;;;;;;;;6.67;6.33;;;;;13.48;100.00;98718.19;5068420;28;45357;-78
2023/03/10 00:05:15;;;;;;;;;5.67;5.33;;;;;13.44;100.00;98706.38;5080149;27;46604;-78
2023/03/10 00:07:43;;;;;;;;;2.33;2.00;;;;;13.47;100.00;98710.44;5080697;27;45150;-79
2023/03/10 00:10:13;;;;;;;;;6.67;4.00;;;;;13.48;100.00;98709.38;5079959;27;45468;-79
2023/03/10 00:12:39;;;;;;;;;6.00;5.00;;;;;13.44;100.00;98700.25;5080196;27;45381;-78
2023/03/10 00:15:06;;;;;;;;;7.00;4.33;;;;;13.47;100.00;98699.75;5080140;27;45392;-79
2023/03/10 00:17:31;;;;;;;;;8.00;5.67;;;;;13.42;100.00;98687.16;5080700;28;45271;-78
2023/03/10 00:19:56;;;;;;;;;3.00;2.33;;;;;13.43;100.00;98688.75;5079730;27;45241;-78
2023/03/10 00:22:22;;;;;;;;;7.00;6.00;;;;;13.43;100.00;98688.75;5078609;28;47398;-78
2023/03/10 00:24:47;;;;;;;;;9.00;6.00;;;;;13.43;100.00;98688.75;5080206;27;45229;-78
2023/03/10 00:27:12;;;;;;;;;8.00;8.00;;;;;13.42;100.00;98683.66;5080331;28;45210;-79
2023/03/10 00:29:38;;;;;;;;;7.67;5.67;;;;;13.40;100.00;98694.56;5077701;28;45400;-78
2023/03/10 00:32:04;;;;;;;;;6.00;4.67;;;;;13.36;100.00;98680.94;5068803;28;53003;-78
2023/03/10 00:34:29;;;;;;;;;7.00;5.67;;;;;13.41;100.00;98690.06;5078494;28;45595;-78
2023/03/10 00:36:55;;;;;;;;;7.33;6.33;;;;;13.35;100.00;98675.84;5080774;28;45428;-76
2023/03/10 00:39:20;;;;;;;;;7.33;5.33;;;;;13.37;100.00;98671.88;5079987;27;45349;-79
2023/03/10 00:41:47;;;;;;;;;7.67;6.67;;;;;13.35;100.00;98665.16;5078819;28;48138;-78
2023/03/10 00:44:13;;;;;;;;;6.67;3.00;;;;;13.36;100.00;98662.25;5079129;28;45669;-78
2023/03/10 00:46:39;;;;;;;;;9.00;5.00;;;;;13.39;100.00;98663.63;5083823;27;45302;-77
2023/03/10 00:49:06;;;;;;;;;6.00;3.00;;;;;13.38;100.00;98659.34;5080450;28;45830;-77
2023/03/10 00:51:31;;;;;;;;;6.33;6.00;;;;;13.36;100.00;98664.91;5082080;27;45296;-77
2023/03/10 00:53:59;;;;;;;;;6.33;5.00;;;;;13.37;100.00;98665.72;5080729;27;45195;-77
2023/03/10 00:56:25;;;;;;;;;6.33;5.67;;;;;13.38;100.00;98665.47;5080533;28;45255;-77
2023/03/10 00:58:53;;;;;;;;;4.33;3.33;;;;;13.38;100.00;98657.47;5080026;27;45343;-78
2023/03/10 01:01:31;;;;;;;;;5.67;4.67;;;;;13.34;100.00;98647.53;5079159;28;47608;-78
2023/03/10 01:03:59;;;;;;;;;3.00;3.00;;;;;13.38;100.00;98651.34;5080763;27;45231;-78
2023/03/10 01:06:25;;;;;;;;;9.00;5.67;;;;;13.35;100.00;98643.81;5080456;28;45345;-78
2023/03/10 01:08:51;;;;;;;;;3.67;3.33;;;;;13.38;100.00;98643.34;5078870;28;47220;-79
2023/03/10 01:11:19;;;;;;;;;3.33;2.00;;;;;13.33;100.00;98648.59;5079966;27;45345;-78
2023/03/10 01:13:44;;;;;;;;;4.33;3.00;;;;;13.26;100.00;98662.88;5079253;27;45299;-79
2023/03/10 01:16:10;;;;;;;;;7.67;7.00;;;;;13.13;100.00;98644.53;5079925;27;45517;-78
2023/03/10 01:18:35;;;;;;;;;4.33;2.67;;;;;13.13;100.00;98648.03;5061589;27;45254;-79
2023/03/10 01:21:01;;;;;;;;;4.00;4.00;;;;;13.01;100.00;98633.97;5070511;28;45693;-79
2023/03/10 01:23:26;;;;;;;;;2.33;2.33;;;;;12.92;100.00;98632.72;5077742;28;46394;-77
2023/03/10 01:25:53;;;;;;;;;6.00;2.00;;;;;12.93;100.00;98659.16;5079734;28;45275;-79
2023/03/10 01:28:19;;;;;;;;;3.67;3.33;;;;;12.85;100.00;98671.03;5082279;27;46175;-79
2023/03/10 01:30:45;;;;;;;;;5.00;3.00;;;;;12.76;100.00;98648.50;5079390;28;45490;-79
2023/03/10 01:33:12;;;;;;;;;1.00;1.00;;;;;12.74;100.00;98645.25;5079130;28;45538;-77
2023/03/10 01:35:38;;;;;;;;;1.67;0.67;;;;;12.62;100.00;98608.00;5079835;27;45305;-79
2023/03/10 01:38:04;;;;;;;;;3.00;2.00;;;;;12.62;100.00;98610.66;5077952;28;46027;-79
2023/03/10 01:40:30;;;;;;;;;0.00;0.00;;;;;12.62;100.00;98629.31;5080910;27;46757;-79
2023/03/10 01:43:23;;;;;;;;;0.00;0.00;;;;;12.60;100.00;98631.44;5080255;28;45414;-78
2023/03/10 01:45:51;;;;;;;;;2.00;0.00;;;;;12.58;100.00;98641.50;5079035;28;45321;-79
2023/03/10 01:48:18;;;;;;;;;1.00;1.00;;;;;12.54;100.00;98640.38;5079438;28;47484;-79
2023/03/10 01:50:47;;;;;;;;;1.33;1.33;;;;;12.40;100.00;98618.53;5080393;28;47223;-79
2023/03/10 01:53:18;;;;;;;;;0.00;0.00;;;;;12.41;100.00;98622.81;5081482;27;45404;-78
2023/03/10 01:55:51;;;;;;;;;3.00;1.00;;;;;12.41;100.00;98631.59;5081856;28;45291;-79
2023/03/10 01:58:21;;;;;;;;;3.00;1.00;;;;;12.36;100.00;98615.53;5085133;27;45550;-79
2023/03/10 02:00:46;;;;;;;;;1.00;1.00;;;;;12.20;100.00;98587.81;5089435;28;45344;-78
2023/03/10 02:03:20;;;;;;;;;1.00;1.00;;;;;12.30;100.00;98603.97;5093442;28;45385;-79
2023/03/10 02:06:02;;;;;;;;;2.00;1.00;;;;;12.28;100.00;98595.44;5092578;28;45342;-78
2023/03/10 02:08:32;;;;;;;;;2.33;2.33;;;;;12.25;100.00;98593.25;5092568;28;45372;-78
2023/03/10 02:10:58;;;;;;;;;4.67;2.00;;;;;12.21;100.00;98579.56;5080309;27;45299;-78
2023/03/10 02:13:23;;;;;;;;;2.00;2.00;;;;;12.20;100.00;98572.63;5089052;28;46445;-78
2023/03/10 02:15:49;;;;;;;;;4.67;4.67;;;;;12.33;100.00;98587.50;5082536;27;45312;-78
2023/03/10 02:18:16;;;;;;;;;3.00;2.00;;;;;12.31;100.00;98575.50;5085453;28;45244;-78
2023/03/10 02:21:06;;;;;;;;;3.00;3.00;;;;;12.34;100.00;98565.19;5071409;28;45236;-78
2023/03/10 02:23:52;;;;;;;;;3.00;3.00;;;;;12.41;100.00;98567.69;5087739;27;46119;-79
2023/03/10 02:26:31;;;;;;;;;4.67;4.67;;;;;12.40;100.00;98550.09;5090733;27;45357;-78
2023/03/10 02:28:59;;;;;;;;;11.33;6.00;;;;;12.45;100.00;98555.47;5090416;27;45252;-77
2023/03/10 02:31:25;;;;;;;;;6.33;6.00;;;;;12.48;100.00;98544.34;5090020;27;45300;-78
2023/03/10 02:33:51;;;;;;;;;6.00;4.00;;;;;12.60;100.00;98554.16;5087327;28;46558;-78
2023/03/10 02:36:20;;;;;;;;;5.67;2.67;;;;;12.60;100.00;98546.94;5086590;27;45428;-77
2023/03/10 02:38:46;;;;;;;;;9.00;5.00;;;;;12.61;100.00;98553.09;5068285;28;45158;-77
2023/03/10 02:41:18;;;;;;;;;2.67;2.67;;;;;12.75;100.00;98553.56;5083101;28;47540;-77
2023/03/10 02:43:43;;;;;;;;;4.33;3.00;;;;;12.71;100.00;98539.94;5088017;27;45399;-77
2023/03/10 02:46:09;;;;;;;;;6.33;4.00;;;;;12.65;100.00;98532.06;5085624;27;45546;-77
2023/03/10 02:48:37;;;;;;;;;5.00;4.67;;;;;12.66;100.00;98531.06;5086499;27;45528;-77
2023/03/10 02:51:06;;;;;;;;;5.00;4.00;;;;;12.72;100.00;98546.88;5086412;27;45215;-77
2023/03/10 02:53:32;;;;;;;;;3.00;3.00;;;;;12.69;100.00;98526.03;5085410;28;45310;-78
2023/03/10 02:55:58;;;;;;;;;6.00;5.00;;;;;12.72;100.00;98520.22;5082785;27;45333;-78
2023/03/10 02:58:25;;;;;;;;;9.67;6.67;;;;;12.78;100.00;98541.63;5082459;27;45328;-77
2023/03/10 03:00:51;;;;;;;;;6.67;6.00;;;;;12.73;100.00;98535.19;5081414;28;45303;-77
2023/03/10 03:03:18;;;;;;;;;6.33;3.00;;;;;12.67;100.00;98532.66;5082923;27;45219;-77
2023/03/10 03:05:44;;;;;;;;;3.67;3.00;;;;;12.68;100.00;98539.59;5081574;28;45516;-77
2023/03/10 03:08:09;;;;;;;;;4.33;2.00;;;;;12.62;100.00;98522.72;5082339;27;45434;-77
2023/03/10 03:10:36;;;;;;;;;1.67;1.67;;;;;12.54;100.00;98531.91;5082488;27;45302;-77
2023/03/10 03:13:02;;;;;;;;;2.00;2.00;;;;;12.49;100.00;98535.31;5082045;27;45313;-77
2023/03/10 03:15:28;;;;;;;;;2.00;1.00;;;;;12.45;100.00;98531.50;5081437;28;45370;-77
2023/03/10 03:17:53;;;;;;;;;2.00;2.00;;;;;12.42;100.00;98523.22;5081950;27;45480;-77
2023/03/10 03:20:20;;;;;;;;;2.00;0.00;;;;;12.40;100.00;98519.97;5081045;28;45241;-77
2023/03/10 03:22:46;;;;;;;;;1.00;1.00;;;;;12.37;100.00;98522.06;5069332;27;45307;-76
2023/03/10 03:25:14;;;;;;;;;0.00;0.00;;;;;12.35;100.00;98521.50;5080155;27;45440;-77
2023/03/10 03:27:40;;;;;;;;;0.00;0.00;;;;;12.32;100.00;98513.16;5082006;28;45292;-77
2023/03/10 03:30:10;;;;;;;;;1.00;0.00;;;;;12.32;100.00;98510.50;5080342;27;48414;-77
2023/03/10 03:32:35;;;;;;;;;2.67;1.00;;;;;12.30;100.00;98505.41;5081129;27;45204;-77
2023/03/10 03:35:03;;;;;;;;;3.33;1.00;;;;;12.29;100.00;98508.31;5079446;28;45255;-77
2023/03/10 03:37:28;;;;;;;;;4.67;2.00;;;;;12.23;100.00;98500.25;5080113;28;46240;-75
2023/03/10 03:39:54;;;;;;;;;1.00;1.00;;;;;12.24;100.00;98509.03;5081059;28;47551;-77
2023/03/10 03:42:19;;;;;;;;;2.33;2.00;;;;;12.19;100.00;98509.78;5080389;28;45356;-77
2023/03/10 03:44:45;;;;;;;;;3.67;2.67;;;;;12.14;100.00;98504.34;5081009;28;45353;-77
2023/03/10 03:47:10;;;;;;;;;4.33;2.33;;;;;12.19;100.00;98507.13;5080882;27;45523;-76
2023/03/10 03:49:36;;;;;;;;;3.00;2.33;;;;;12.26;100.00;98525.59;5066193;27;48227;-78
2023/03/10 03:52:03;;;;;;;;;4.67;3.00;;;;;12.20;100.00;98500.75;5080685;27;45402;-77
2023/03/10 03:54:28;;;;;;;;;4.00;3.00;;;;;12.24;100.00;98509.84;5079967;27;45327;-77
2023/03/10 03:56:53;;;;;;;;;4.67;2.33;;;;;12.25;100.00;98508.81;5080417;27;45494;-77
2023/03/10 03:59:19;;;;;;;;;3.00;3.00;;;;;12.32;100.00;98518.50;5078780;28;47165;-77
2023/03/10 04:01:45;;;;;;;;;6.33;5.33;;;;;12.31;100.00;98519.56;5080636;28;45295;-78
2023/03/10 04:04:10;;;;;;;;;4.00;2.67;;;;;12.30;100.00;98515.28;5080164;27;45384;-77
2023/03/10 04:06:35;;;;;;;;;4.00;2.00;;;;;12.24;100.00;98520.50;5079027;28;47020;-77
2023/03/10 04:09:01;;;;;;;;;3.33;3.00;;;;;12.22;100.00;98519.16;5079901;27;51658;-77
2023/03/10 04:11:26;;;;;;;;;3.33;3.00;;;;;12.25;100.00;98527.44;5080489;27;45233;-77
2023/03/10 04:13:51;;;;;;;;;3.00;2.67;;;;;12.23;100.00;98531.41;5080306;28;45387;-77
2023/03/10 04:16:17;;;;;;;;;5.00;4.00;;;;;12.17;100.00;98529.69;5080375;28;45278;-77
2023/03/10 04:18:42;;;;;;;;;3.33;3.33;;;;;12.18;100.00;98537.44;5074849;27;45282;-77
2023/03/10 04:21:07;;;;;;;;;5.67;5.33;;;;;12.15;100.00;98529.94;5070541;28;45277;-78
2023/03/10 04:23:32;;;;;;;;;7.00;4.33;;;;;12.15;100.00;98529.94;5078537;28;45424;-77
2023/03/10 04:25:58;;;;;;;;;3.67;2.67;;;;;12.06;100.00;98518.81;5096050;27;46548;-77
2023/03/10 04:28:23;;;;;;;;;3.67;3.67;;;;;12.03;100.00;98521.19;5080100;27;48970;-77
2023/03/10 04:30:50;;;;;;;;;5.67;5.00;;;;;12.08;100.00;98523.94;5078854;28;45713;-77
2023/03/10 04:33:15;;;;;;;;;4.67;3.00;;;;;12.07;100.00;98517.00;5078518;28;45363;-78
2023/03/10 04:35:43;;;;;;;;;4.00;4.00;;;;;12.07;100.00;98512.50;5079717;28;45476;-78
2023/03/10 04:38:08;;;;;;;;;4.67;3.67;;;;;12.11;100.00;98523.47;5079826;27;45317;-78
2023/03/10 04:40:34;;;;;;;;;4.67;4.67;;;;;12.09;100.00;98523.72;5079801;27;45270;-77
2023/03/10 04:42:59;;;;;;;;;6.00;3.33;;;;;12.01;100.00;98516.09;5079913;27;45286;-78
2023/03/10 04:45:25;;;;;;;;;2.33;2.33;;;;;12.00;100.00;98525.91;5067781;27;45285;-79
2023/03/10 04:47:50;;;;;;;;;1.33;1.00;;;;;11.97;100.00;98517.59;5077030;27;48404;-78
2023/03/10 04:50:16;;;;;;;;;4.33;2.00;;;;;11.95;100.00;98525.03;5079569;28;45223;-78
2023/03/10 04:52:43;;;;;;;;;4.00;3.00;;;;;11.92;100.00;98525.50;5079920;28;45141;-79
2023/03/10 04:55:09;;;;;;;;;1.00;1.00;;;;;11.88;100.00;98522.50;5079420;27;45437;-79
2023/03/10 04:57:34;;;;;;;;;6.00;4.00;;;;;11.83;100.00;98511.75;5079775;27;45301;-79
2023/03/10 05:00:00;;;;;;;;;4.00;2.00;;;;;11.89;100.00;98524.13;5080095;27;45303;-79
2023/03/10 05:02:25;;;;;;;;;3.33;3.00;;;;;11.87;100.00;98526.19;5074842;27;45290;-79
2023/03/10 05:04:50;;;;;;;;;2.67;2.00;;;;;11.82;100.00;98523.47;5071387;28;45599;-79
2023/03/10 05:07:16;;;;;;;;;3.67;2.00;;;;;11.79;100.00;98534.56;5077821;27;52059;-79
2023/03/10 05:09:41;;;;;;;;;4.67;1.00;;;;;11.89;100.00;98537.44;5079631;28;49432;-79
2023/03/10 05:12:07;;;;;;;;;1.67;1.67;;;;;11.78;100.00;98525.78;5079514;27;45271;-79
2023/03/10 05:14:32;;;;;;;;;2.00;2.00;;;;;11.77;100.00;98536.66;5078362;28;46163;-79
2023/03/10 05:16:57;;;;;;;;;3.33;2.33;;;;;11.80;100.00;98536.19;5079526;27;45451;-79
2023/03/10 05:19:23;;;;;;;;;1.33;1.00;;;;;11.76;100.00;98529.72;5079750;27;45293;-79
2023/03/10 05:21:48;;;;;;;;;2.00;2.00;;;;;11.67;100.00;98518.66;5080346;28;45327;-79
2023/03/10 05:24:14;;;;;;;;;1.00;1.00;;;;;11.76;100.00;98533.16;5078624;28;56485;-78
2023/03/10 05:26:40;;;;;;;;;2.00;1.33;;;;;11.69;100.00;98528.00;5078331;28;47181;-79
2023/03/10 05:29:06;;;;;;;;;1.00;1.00;;;;;11.69;100.00;98525.34;5079393;28;45330;-79
2023/03/10 05:31:31;;;;;;;;;0.00;0.00;;;;;11.68;100.00;98530.91;5078916;27;45269;-79
2023/03/10 05:33:56;;;;;;;;;2.33;0.33;;;;;11.65;100.00;98529.53;5079982;28;45512;-79
2023/03/10 05:36:22;;;;;;;;;1.00;1.00;;;;;11.69;100.00;98541.31;5081627;27;45250;-79
2023/03/10 05:38:47;;;;;;;;;0.67;0.67;;;;;11.61;100.00;98529.16;5083323;27;45261;-79
2023/03/10 05:41:13;;;;;;;;;0.67;0.33;;;;;11.53;100.00;98542.84;5083964;27;45357;-79
2023/03/10 05:43:38;;;;;;;;;0.00;0.00;;;;;11.55;100.00;98547.94;5082188;28;46208;-78
2023/03/10 05:46:04;;;;;;;;;1.00;1.00;;;;;11.54;100.00;98546.31;5082027;28;47261;-79
2023/03/10 05:48:30;;;;;;;;;3.00;1.00;;;;;11.42;100.00;98525.88;5084760;28;45397;-79
2023/03/10 05:51:04;;;;;;;;;0.00;0.00;;;;;11.47;100.00;98549.09;5083623;27;45393;-79
2023/03/10 05:53:31;;;;;;;;;2.00;0.67;;;;;11.41;100.00;98540.22;5071011;28;47253;-79
2023/03/10 05:55:56;;;;;;;;;1.00;0.00;;;;;11.43;100.00;98543.44;5083976;28;46208;-79
2023/03/10 05:58:23;;;;;;;;;3.00;0.00;;;;;11.41;100.00;98534.91;5083526;28;45327;-79
2023/03/10 06:00:49;;;;;;;;;2.00;1.00;;;;;11.39;100.00;98542.28;5084995;28;45452;-79
2023/03/10 06:03:15;;;;;;;;;0.33;0.33;;;;;11.40;100.00;98541.25;5083267;27;45395;-79
2023/03/10 06:05:40;;;;;;;;;0.00;0.00;;;;;11.35;100.00;98539.28;5084066;28;45203;-79
2023/03/10 06:08:06;;;;;;;;;0.33;0.33;;;;;11.38;100.00;98547.84;5081548;28;45662;-78
2023/03/10 06:10:31;;;;;;;;;0.00;0.00;;;;;11.41;100.00;98548.19;5081178;28;45295;-79
2023/03/10 06:12:56;;;;;;;;;0.00;0.00;;;;;11.27;100.00;98536.16;5082946;27;45347;-77
2023/03/10 06:15:22;;;;;;;;;1.00;0.00;;;;;11.32;100.00;98547.72;5081121;27;47357;-79
2023/03/10 06:17:47;;;;;;;;;1.00;1.00;;;;;11.38;100.00;98569.13;5082709;28;45208;-79
2023/03/10 06:20:13;;;;;;;;;0.67;0.00;;;;;11.30;100.00;98555.13;5080768;28;46725;-77
2023/03/10 06:22:38;;;;;;;;;0.00;0.00;;;;;11.34;100.00;98560.78;5079735;27;45437;-78
2023/03/10 06:25:04;;;;;;;;;1.00;1.00;;;;;11.31;100.00;98566.59;5069315;28;46929;-78
2023/03/10 06:27:30;;;;;;;;;0.67;0.33;;;;;11.31;100.00;98574.56;5082235;27;45197;-79
2023/03/10 06:29:56;;;;;;;;;2.00;1.00;;;;;11.29;100.00;98585.44;5083090;27;45484;-79
2023/03/10 06:32:21;;;;;;;;;1.00;1.00;;;;;11.26;100.00;98575.25;5081455;28;47477;-79
2023/03/10 06:34:47;;;;;;;;;0.33;0.33;;;;;11.30;100.00;98581.72;5081191;27;46272;-78
2023/03/10 06:37:12;;;;;;;;;0.33;0.33;;;;;11.21;100.00;98599.88;5066320;28;45298;-80
2023/03/10 06:39:38;;;;;;;;;2.00;1.33;;;;;11.27;100.00;98602.66;5081840;28;45302;-79
2023/03/10 06:42:04;;;;;;;;;1.00;1.00;;;;;11.24;100.00;98603.94;5080013;28;47236;-79
2023/03/10 06:44:30;;;;;;;;;1.00;1.00;;;;;11.26;100.00;98601.03;5081050;28;45484;-78
2023/03/10 06:46:55;;;;;;;;;1.00;1.00;;;;;11.24;100.00;98607.41;5078511;28;46010;-79
2023/03/10 06:49:21;;;;;;;;;0.00;0.00;;;;;11.16;100.00;98586.47;5061758;28;45638;-80
2023/03/10 06:51:46;;;;;;;;;2.00;2.00;;;;;11.21;100.00;98583.94;5073702;28;46388;-78
2023/03/10 06:54:11;;;;;;;;;1.33;1.00;;;;;11.13;100.00;98600.22;5081032;28;49342;-78
2023/03/10 06:56:37;;;;;;;;;1.00;1.00;;;;;11.15;100.00;98598.16;5079892;28;45274;-81
2023/03/10 06:59:02;;;;;;;;;1.00;1.00;;;;;11.20;100.00;98614.19;5082012;27;45290;-81
2023/03/10 07:01:31;;;;;;;;;1.00;1.00;;;;;11.06;100.00;98596.88;5081291;28;45485;-80
2023/03/10 07:03:57;;;;;;;;;1.00;0.67;;;;;11.13;100.00;98607.41;5081385;27;45346;-81
2023/03/10 07:06:23;;;;;;;;;1.00;1.00;;;;;11.07;100.00;98609.09;5080820;27;45380;-81
2023/03/10 07:08:49;;;;;;;;;2.67;1.00;;;;;11.17;100.00;98621.84;5080006;27;45363;-80
2023/03/10 07:11:14;;;;;;;;;2.67;2.00;;;;;11.17;100.00;98643.94;5080944;28;45461;-80
2023/03/10 07:13:40;;;;;;;;;0.33;0.33;;;;;11.18;100.00;98637.56;5081362;27;46095;-80
2023/03/10 07:16:06;;;;;;;;;1.00;1.00;;;;;11.21;100.00;98646.94;5081089;27;45261;-80
2023/03/10 07:18:31;;;;;;;;;0.33;0.33;;;;;11.28;100.00;98647.63;5080077;28;45186;-80
2023/03/10 07:20:57;;;;;;;;;1.00;1.00;;;;;11.29;100.00;98659.91;5080957;28;45482;-80
2023/03/10 07:23:23;;;;;;;;;0.00;0.00;;;;;11.22;100.00;98664.50;5080772;28;47566;-80
2023/03/10 07:25:55;;;;;;;;;1.00;1.00;;;;;11.34;100.00;98669.81;5079811;28;45331;-80
2023/03/10 07:28:20;;;;;;;;;0.00;0.00;;;;;11.37;100.00;98682.66;5081235;27;45287;-79
2023/03/10 07:30:45;;;;;;;;;1.00;0.33;;;;;11.39;100.00;98691.22;5080576;27;45441;-79
2023/03/10 07:33:11;;;;;;;;;0.00;0.00;;;;;11.36;100.00;98692.50;5080884;28;46163;-79
2023/03/10 07:35:36;;;;;;;;;0.00;0.00;;;;;11.44;100.00;98691.34;5080707;27;45210;-80
2023/03/10 07:38:03;;;;;;;;;2.00;0.00;;;;;11.47;100.00;98692.75;5080974;27;45501;-80
2023/03/10 07:40:28;;;;;;;;;0.00;0.00;;;;;11.46;100.00;98705.22;5078109;28;45256;-79
2023/03/10 07:42:54;;;;;;;;;1.00;1.00;;;;;11.51;100.00;98711.69;5080590;28;45275;-79
2023/03/10 07:45:21;;;;;;;;;1.00;0.00;;;;;11.51;100.00;98730.31;5080905;28;45299;-78
2023/03/10 07:47:46;;;;;;;;;0.00;0.00;;;;;11.46;100.00;98734.47;5081087;27;45341;-79
2023/03/10 07:50:12;;;;;;;;;0.00;0.00;;;;;11.43;100.00;98715.53;5080356;27;45874;-79
2023/03/10 07:52:37;;;;;;;;;0.00;0.00;;;;;11.55;100.00;98750.91;5079184;28;47040;-77
2023/03/10 07:55:03;;;;;;;;;0.00;0.00;;;;;11.57;100.00;98775.47;5079517;28;45385;-78
2023/03/10 07:57:29;;;;;;;;;1.00;1.00;;;;;11.52;100.00;98771.88;5080627;28;45305;-79
2023/03/10 07:59:54;;;;;;;;;1.00;1.00;;;;;11.60;100.00;98782.97;5078785;28;49759;-78
2023/03/10 08:02:19;;;;;;;;;1.00;0.00;;;;;11.61;100.00;98786.44;5080185;27;45325;-77
2023/03/10 08:04:45;;;;;;;;;2.00;1.00;;;;;11.64;100.00;98815.25;5080632;27;45293;-79
2023/03/10 08:07:10;;;;;;;;;0.00;0.00;;;;;11.65;100.00;98805.44;5079088;28;45294;-80
2023/03/10 08:09:36;;;;;;;;;1.00;1.00;;;;;11.52;100.00;98793.94;5080291;27;47537;-79
2023/03/10 08:12:02;;;;;;;;;0.00;0.00;;;;;11.60;100.00;98820.22;5080008;27;45407;-78
2023/03/10 08:14:29;;;;;;;;;0.00;0.00;;;;;11.61;100.00;98823.69;5078283;28;46417;-79
2023/03/10 08:16:55;;;;;;;;;0.00;0.00;;;;;11.55;100.00;98816.63;5080717;27;45327;-79
2023/03/10 08:19:25;;;;;;;;;0.00;0.00;;;;;11.52;100.00;98833.06;5080376;27;45385;-79
2023/03/10 08:21:53;;;;;;;;;0.00;0.00;;;;;11.54;100.00;98836.28;5078486;28;47080;-79
2023/03/10 08:24:18;;;;;;;;;0.00;0.00;;;;;11.51;100.00;98836.72;5079943;27;45404;-80
2023/03/10 08:26:43;;;;;;;;;0.00;0.00;;;;;11.50;100.00;98849.25;5072717;28;45371;-79
2023/03/10 08:29:09;;;;;;;;;0.00;0.00;;;;;11.51;100.00;98860.66;5073983;27;46961;-79
2023/03/10 08:31:34;;;;;;;;;0.00;0.00;;;;;11.50;100.00;98849.25;5060774;27;56678;-79
2023/03/10 08:33:59;;;;;;;;;0.00;0.00;;;;;11.57;100.00;98870.41;5056923;28;47074;-80
2023/03/10 08:36:28;;;;;;;;;0.67;0.00;;;;;11.65;100.00;98887.91;5076622;28;45628;-78
2023/03/10 08:38:54;;;;;;;;;0.00;0.00;;;;;11.60;100.00;98875.28;5079670;27;45302;-81
2023/03/10 08:41:33;;;;;;;;;0.00;0.00;;;;;11.65;100.00;98891.41;5079548;27;46366;-79
2023/03/10 08:43:59;;;;;;;;;0.00;0.00;;;;;11.67;100.00;98913.25;5063706;28;45757;-80
2023/03/10 08:46:27;;;;;;;;;0.00;0.00;;;;;11.68;100.00;98914.06;5079763;27;45441;-79
2023/03/10 08:48:53;;;;;;;;;0.33;0.00;;;;;11.71;100.00;98932.25;5077730;28;47153;-79
2023/03/10 08:51:19;;;;;;;;;1.00;1.00;;;;;11.72;100.00;98917.91;5077066;28;48578;-79
2023/03/10 08:53:47;;;;;;;;;0.00;0.00;;;;;11.65;100.00;98915.34;5078428;27;45385;-80
2023/03/10 08:56:12;;;;;;;;;0.00;0.00;;;;;11.76;100.00;98939.56;5079369;28;45354;-79
2023/03/10 08:58:37;;;;;;;;;0.00;0.00;;;;;11.69;100.00;98940.47;5078988;28;45452;-79
2023/03/10 09:01:04;;;;;;;;;1.00;0.00;;;;;11.70;100.00;98926.09;5079293;27;46155;-78
2023/03/10 09:03:29;;;;;;;;;0.00;0.00;;;;;11.70;100.00;98946.59;5079684;27;45393;-79
2023/03/10 09:05:54;;;;;;;;;0.00;0.00;;;;;11.69;100.00;98964.41;5079605;28;45436;-78
2023/03/10 09:08:21;;;;;;;;;0.00;0.00;;;;;11.62;100.00;98950.38;5079480;28;45269;-79
2023/03/10 09:10:46;;;;;;;;;0.00;0.00;;;;;11.66;100.00;98970.19;5078821;27;46142;-79
2023/03/10 09:13:12;;;;;;;;;0.00;0.00;;;;;11.62;100.00;98964.47;5083110;27;45348;-79
2023/03/10 09:15:40;;;;;;;;;0.00;0.00;;;;;11.68;100.00;98980.59;5068583;28;45354;-79
2023/03/10 09:18:10;;;;;;;;;0.00;0.00;;;;;11.71;100.00;98988.13;5082591;28;45476;-80
2023/03/10 09:20:36;;;;;;;;;0.00;0.00;;;;;11.72;100.00;98998.56;5081354;28;48639;-79
2023/03/10 09:23:02;;;;;;;;;1.00;0.00;;;;;11.67;100.00;99008.25;5082237;27;45387;-79
2023/03/10 09:25:28;;;;;;;;;0.00;0.00;;;;;11.69;100.00;99038.09;5083237;27;45330;-78
2023/03/10 09:27:53;;;;;;;;;0.33;0.33;;;;;11.67;100.00;99064.13;5082792;27;45405;-79
2023/03/10 09:30:18;;;;;;;;;2.00;2.00;;;;;11.65;100.00;99053.72;5073904;28;47091;-80
2023/03/10 09:32:44;;;;;;;;;0.00;0.00;;;;;11.64;100.00;99072.56;5076299;28;45326;-79
2023/03/10 09:35:10;;;;;;;;;0.00;0.00;;;;;11.58;100.00;99083.03;5083029;27;45310;-78
2023/03/10 09:37:36;;;;;;;;;0.00;0.00;;;;;11.52;100.00;99075.16;5082515;27;45378;-79
2023/03/10 09:40:04;;;;;;;;;1.00;1.00;;;;;11.58;100.00;99085.72;5082714;27;46249;-79
2023/03/10 09:42:47;;;;;;;;;1.00;1.00;;;;;11.58;100.00;99088.38;5077529;27;45578;-79
2023/03/10 09:45:24;;;;;;;;;0.00;0.00;;;;;11.61;100.00;99103.06;5080784;27;45382;-79
2023/03/10 09:48:18;;;;;;;;;0.00;0.00;;;;;11.59;100.00;99129.09;5080702;28;45449;-79
2023/03/10 09:50:46;;;;;;;;;1.00;0.00;;;;;11.56;100.00;99164.94;5071017;28;46521;-78
2023/03/10 09:53:36;;;;;;;;;0.00;0.00;;;;;11.42;100.00;99137.66;5076700;27;45525;-78
2023/03/10 09:56:11;;;;;;;;;0.00;0.00;;;;;11.30;100.00;99164.16;5075208;27;45203;-78
2023/03/10 09:59:11;;;;;;;;;0.00;0.00;;;;;11.15;100.00;99176.94;5069895;28;46372;-78
2023/03/10 10:01:39;;;;;;;;;1.00;1.00;;;;;11.01;100.00;99173.59;5082143;28;45374;-78
2023/03/10 10:04:16;;;;;;;;;0.00;0.00;;;;;10.94;100.00;99174.44;5080944;28;45353;-79
2023/03/10 10:06:45;;;;;;;;;0.67;0.67;;;;;10.92;100.00;99176.50;5082249;27;45343;-79
2023/03/10 10:09:24;;;;;;;;;1.00;0.00;;;;;10.93;100.00;99178.13;5082120;27;45240;-79
2023/03/10 10:11:49;;;;;;;;;0.33;0.33;;;;;10.91;100.00;99193.47;5082290;27;45342;-80
2023/03/10 10:14:27;;;;;;;;;1.00;1.00;;;;;10.91;100.00;99201.47;5080455;28;45305;-80
2023/03/10 10:16:57;;;;;;;;;2.00;1.00;;;;;11.01;100.00;99221.44;5081204;28;45255;-78
2023/03/10 10:19:25;;;;;;;;;1.00;1.00;;;;;10.96;100.00;99196.28;5081937;27;45295;-79
2023/03/10 10:22:03;;;;;;;;;0.67;0.33;;;;;11.02;100.00;99252.31;5080682;27;47358;-79
2023/03/10 10:24:28;;;;;;;;;2.00;2.00;;;;;10.88;100.00;99230.28;5081712;28;45342;-79
2023/03/10 10:26:55;;;;;;;;;3.00;3.00;;;;;10.98;100.00;99249.25;5080924;28;45452;-78
2023/03/10 10:29:35;;;;;;;;;4.00;3.33;;;;;11.03;100.00;99280.50;5081632;28;45448;-81
2023/03/10 10:32:15;;;;;;;;;2.67;2.67;;;;;11.04;100.00;99279.50;5081644;27;46966;-79
2023/03/10 10:34:42;;;;;;;;;2.00;2.00;;;;;11.06;100.00;99277.44;5081898;27;45373;-79
2023/03/10 10:37:23;;;;;;;;;2.33;2.33;;;;;11.13;100.00;99275.53;5081335;27;45349;-79
2023/03/10 10:39:51;;;;;;;;;1.00;1.00;;;;;11.06;100.00;99298.69;5081626;27;45470;-79
2023/03/10 10:42:31;;;;;;;;;3.00;2.67;;;;;11.17;100.00;99287.41;5081417;27;45615;-80
2023/03/10 10:44:59;;;;;;;;;1.33;1.00;;;;;11.20;100.00;99313.53;5081701;27;45450;-79
2023/03/10 10:47:35;;;;;;;;;1.00;1.00;;;;;11.21;100.00;99299.25;5080867;28;45292;-78
2023/03/10 10:50:16;;;;;;;;;1.67;1.33;;;;;11.22;100.00;99305.34;5079707;27;45636;-79
2023/03/10 10:52:41;;;;;;;;;2.33;1.00;;;;;11.19;100.00;99297.81;5077829;28;47333;-81
2023/03/10 10:55:26;;;;;;;;;3.00;2.00;;;;;11.20;100.00;99332.16;5081321;27;45322;-81
2023/03/10 10:57:58;;;;;;;;;3.33;2.00;;;;;11.13;100.00;99320.75;5081966;27;45366;-80
2023/03/10 11:00:26;;;;;;;;;1.33;1.33;;;;;11.15;100.00;99329.34;5079870;28;47033;-79
2023/03/10 11:02:52;;;;;;;;;2.33;2.00;;;;;11.22;100.00;99332.78;5081448;27;45265;-78
2023/03/10 11:05:22;;;;;;;;;3.00;1.00;;;;;11.26;100.00;99341.16;5081117;27;45794;-78
2023/03/10 11:07:49;;;;;;;;;3.00;3.00;;;;;11.28;100.00;99343.59;5081072;27;45456;-80
2023/03/10 11:10:25;;;;;;;;;1.33;1.00;;;;;11.34;100.00;99340.88;5080952;28;45284;-81
2023/03/10 11:13:13;;;;;;;;;4.00;2.33;;;;;11.43;100.00;99364.59;5080293;28;47676;-78
2023/03/10 11:15:52;;;;;;;;;4.67;2.67;;;;;11.38;100.00;99356.44;5080486;28;45309;-81
2023/03/10 11:18:26;;;;;;;;;2.67;2.67;;;;;11.35;100.00;99365.66;5081383;27;45302;-81
2023/03/10 11:21:12;;;;;;;;;2.00;2.00;;;;;11.32;97.83;99388.16;5079996;28;47557;-83
2023/03/10 11:24:04;;;;;;;;;1.00;1.00;;;;;11.34;98.06;99401.25;5075086;27;45409;-80
2023/03/10 11:26:38;;;;;;;;;1.00;1.00;;;;;11.40;96.78;99395.06;5079539;28;45383;-79